createdAt,value
2022-09-30T00:00:11.446Z,8.53
2022-09-30T00:01:11.115Z,8.53
2022-09-30T00:02:11.501Z,8.53
2022-09-30T00:03:11.113Z,8.50
2022-09-30T00:04:11.085Z,8.53
2022-09-30T00:05:11.092Z,8.48
2022-09-30T00:06:11.058Z,8.47
2022-09-30T00:07:11.068Z,8.47
2022-09-30T00:08:11.299Z,8.47
2022-09-30T00:09:11.084Z,8.42
2022-09-30T00:10:11.041Z,8.42
2022-09-30T00:11:11.021Z,8.37
2022-09-30T00:12:11.009Z,8.39
2022-09-30T00:13:11.010Z,8.36
2022-09-30T00:14:11.291Z,8.39
2022-09-30T00:15:10.958Z,8.37
2022-09-30T00:16:11.013Z,8.36
2022-09-30T00:17:10.938Z,8.36
2022-09-30T00:18:10.940Z,8.37
2022-09-30T00:19:10.924Z,8.36
2022-09-30T00:20:11.120Z,8.35
2022-09-30T00:21:10.905Z,8.35
2022-09-30T00:22:10.890Z,8.33
2022-09-30T00:23:10.883Z,8.32
2022-09-30T00:24:10.851Z,8.30
2022-09-30T00:25:11.160Z,8.29
2022-09-30T00:26:10.842Z,8.25
2022-09-30T00:27:10.835Z,8.25
2022-09-30T00:28:10.820Z,8.25
2022-09-30T00:29:10.812Z,8.25
2022-09-30T00:30:10.795Z,8.21
2022-09-30T00:31:11.068Z,8.21
2022-09-30T00:32:10.761Z,8.20
2022-09-30T00:33:10.752Z,8.20
2022-09-30T00:34:10.739Z,8.18
2022-09-30T00:35:10.724Z,8.20
2022-09-30T00:36:11.029Z,8.15
2022-09-30T00:37:10.726Z,8.15
2022-09-30T00:38:10.706Z,8.15
2022-09-30T00:39:10.683Z,8.14
2022-09-30T00:40:10.934Z,8.14
2022-09-30T00:41:10.675Z,8.12
2022-09-30T00:42:10.667Z,8.12
2022-09-30T00:43:10.633Z,8.10
2022-09-30T00:44:10.646Z,8.12
2022-09-30T00:45:10.613Z,8.11
2022-09-30T00:46:10.828Z,8.10
2022-09-30T00:47:10.714Z,8.14
2022-09-30T00:48:10.589Z,8.12
2022-09-30T00:49:10.565Z,8.11
2022-09-30T00:50:10.796Z,8.11
2022-09-30T00:51:10.545Z,8.10
2022-09-30T00:52:10.540Z,8.07
2022-09-30T00:53:10.732Z,8.07
2022-09-30T00:54:10.504Z,8.07
2022-09-30T00:55:10.495Z,8.04
2022-09-30T00:56:10.492Z,8.03
2022-09-30T00:57:10.475Z,8.03
2022-09-30T00:58:10.763Z,8.03
2022-09-30T00:59:10.477Z,8.02
2022-09-30T01:00:10.436Z,8.02
2022-09-30T01:01:10.462Z,8.03
2022-09-30T01:02:10.702Z,8.03
2022-09-30T01:03:10.407Z,8.00
2022-09-30T01:04:10.389Z,7.97
2022-09-30T01:05:10.399Z,7.97
2022-09-30T01:06:10.366Z,7.94
2022-09-30T01:07:10.360Z,7.94
2022-09-30T01:08:10.616Z,7.96
2022-09-30T01:09:10.430Z,7.93
2022-09-30T01:10:10.334Z,7.93
2022-09-30T01:11:10.316Z,7.94
2022-09-30T01:12:10.298Z,7.94
2022-09-30T01:13:10.602Z,7.94
2022-09-30T01:14:10.272Z,7.94
2022-09-30T01:15:10.267Z,7.93
2022-09-30T01:16:10.293Z,7.92
2022-09-30T01:17:10.240Z,7.92
2022-09-30T01:18:10.229Z,7.92
2022-09-30T01:19:10.251Z,7.92
2022-09-30T01:20:10.213Z,7.93
2022-09-30T01:21:10.211Z,7.93
2022-09-30T01:22:10.180Z,7.92
2022-09-30T01:23:10.185Z,7.90
2022-09-30T01:24:10.159Z,7.89
2022-09-30T01:25:10.390Z,7.89
2022-09-30T01:26:10.132Z,7.87
2022-09-30T01:27:10.128Z,7.85
2022-09-30T01:28:16.772Z,7.85
2022-09-30T01:29:10.404Z,7.85
2022-09-30T01:30:10.104Z,7.84
2022-09-30T01:31:10.163Z,7.85
2022-09-30T01:32:10.065Z,7.85
2022-09-30T01:33:10.076Z,7.82
2022-09-30T01:34:10.056Z,7.82
2022-09-30T01:35:10.362Z,7.82
2022-09-30T01:36:10.035Z,7.79
2022-09-30T01:37:10.026Z,7.78
2022-09-30T01:38:09.993Z,7.77
2022-09-30T01:39:09.984Z,7.75
2022-09-30T01:40:10.176Z,7.74
2022-09-30T01:41:09.979Z,7.74
2022-09-30T01:42:09.955Z,7.72
2022-09-30T01:43:09.944Z,7.72
2022-09-30T01:44:09.945Z,7.71
2022-09-30T01:45:10.137Z,7.72
2022-09-30T01:46:09.906Z,7.69
2022-09-30T01:47:09.909Z,7.71
2022-09-30T01:48:09.898Z,7.72
2022-09-30T01:49:09.877Z,7.71
2022-09-30T01:50:10.075Z,7.72
2022-09-30T01:51:10.738Z,7.74
2022-09-30T01:52:09.847Z,7.69
2022-09-30T01:53:09.841Z,7.67
2022-09-30T01:54:09.805Z,7.67
2022-09-30T01:55:10.006Z,7.69
2022-09-30T01:56:09.795Z,7.66
2022-09-30T01:57:09.776Z,7.62
2022-09-30T01:58:09.780Z,7.62
2022-09-30T01:59:09.994Z,7.63
2022-09-30T02:00:09.755Z,7.62
2022-09-30T02:01:09.886Z,7.62
2022-09-30T02:02:09.823Z,7.58
2022-09-30T02:03:09.708Z,7.58
2022-09-30T02:04:09.710Z,7.55
2022-09-30T02:05:09.912Z,7.52
2022-09-30T02:06:09.710Z,7.53
2022-09-30T02:07:09.707Z,7.53
2022-09-30T02:08:09.821Z,7.53
2022-09-30T02:09:09.710Z,7.53
2022-09-30T02:10:09.883Z,7.52
2022-09-30T02:11:09.620Z,7.52
2022-09-30T02:12:09.623Z,7.52
2022-09-30T02:13:09.612Z,7.50
2022-09-30T02:14:09.593Z,7.49
2022-09-30T02:15:09.586Z,7.52
2022-09-30T02:16:09.912Z,7.52
2022-09-30T02:17:09.560Z,7.49
2022-09-30T02:18:09.553Z,7.45
2022-09-30T02:19:28.038Z,7.45
2022-09-30T02:20:09.525Z,7.45
2022-09-30T02:21:09.500Z,7.44
2022-09-30T02:22:09.506Z,7.45
2022-09-30T02:23:09.490Z,7.47
2022-09-30T02:24:09.474Z,7.45
2022-09-30T02:25:09.722Z,7.45
2022-09-30T02:26:09.456Z,7.45
2022-09-30T02:27:09.445Z,7.44
2022-09-30T02:28:09.420Z,7.44
2022-09-30T02:29:09.424Z,7.44
2022-09-30T02:30:09.399Z,7.45
2022-09-30T02:31:09.787Z,7.44
2022-09-30T02:32:09.606Z,7.42
2022-09-30T02:33:09.384Z,7.41
2022-09-30T02:34:09.365Z,7.41
2022-09-30T02:35:09.356Z,7.38
2022-09-30T02:36:09.323Z,7.41
2022-09-30T02:37:09.319Z,7.40
2022-09-30T02:38:09.634Z,7.38
2022-09-30T02:39:09.311Z,7.38
2022-09-30T02:40:09.300Z,7.38
2022-09-30T02:41:09.289Z,7.37
2022-09-30T02:42:09.291Z,7.37
2022-09-30T02:43:09.247Z,7.35
2022-09-30T02:44:09.234Z,7.34
2022-09-30T02:45:09.228Z,7.32
2022-09-30T02:46:09.253Z,7.27
2022-09-30T02:47:09.455Z,7.26
2022-09-30T02:48:09.196Z,7.23
2022-09-30T02:49:09.184Z,7.23
2022-09-30T02:50:09.178Z,7.22
2022-09-30T02:51:09.170Z,7.23
2022-09-30T02:52:09.469Z,7.24
2022-09-30T02:53:09.134Z,7.23
2022-09-30T02:54:09.116Z,7.26
2022-09-30T02:55:09.120Z,7.27
2022-09-30T02:56:09.094Z,7.26
2022-09-30T02:57:09.099Z,7.26
2022-09-30T02:58:09.410Z,7.26
2022-09-30T02:59:09.056Z,7.24
2022-09-30T03:00:12.691Z,7.24
2022-09-30T03:01:09.069Z,7.24
2022-09-30T03:02:09.039Z,7.26
2022-09-30T03:03:09.217Z,7.26
2022-09-30T03:04:09.019Z,7.24
2022-09-30T03:05:08.990Z,7.23
2022-09-30T03:06:08.993Z,7.22
2022-09-30T03:07:08.968Z,7.22
2022-09-30T03:08:08.963Z,7.20
2022-09-30T03:09:09.015Z,7.23
2022-09-30T03:10:08.942Z,7.22
2022-09-30T03:11:08.933Z,7.23
2022-09-30T03:12:09.571Z,7.23
2022-09-30T03:13:08.901Z,7.24
2022-09-30T03:14:08.879Z,7.24
2022-09-30T03:15:09.182Z,7.26
2022-09-30T03:16:11.962Z,7.23
2022-09-30T03:17:09.857Z,7.23
2022-09-30T03:18:08.853Z,7.20
2022-09-30T03:19:08.851Z,7.20
2022-09-30T03:20:08.850Z,7.20
2022-09-30T03:21:09.081Z,7.20
2022-09-30T03:22:08.791Z,7.20
2022-09-30T03:23:08.781Z,7.20
2022-09-30T03:24:08.772Z,7.20
2022-09-30T03:25:09.076Z,7.20
2022-09-30T03:26:08.753Z,7.19
2022-09-30T03:27:08.731Z,7.19
2022-09-30T03:28:08.723Z,7.19
2022-09-30T03:29:08.721Z,7.19
2022-09-30T03:30:08.702Z,7.17
2022-09-30T03:31:09.028Z,7.16
2022-09-30T03:32:08.673Z,7.17
2022-09-30T03:33:08.893Z,7.16
2022-09-30T03:34:08.655Z,7.17
2022-09-30T03:35:08.643Z,7.16
2022-09-30T03:36:08.648Z,7.17
2022-09-30T03:37:08.640Z,7.17
2022-09-30T03:38:08.615Z,7.17
2022-09-30T03:39:08.917Z,7.15
2022-09-30T03:40:08.595Z,7.13
2022-09-30T03:41:08.588Z,7.15
2022-09-30T03:42:08.565Z,7.12
2022-09-30T03:43:08.568Z,7.08
2022-09-30T03:44:08.537Z,7.08
2022-09-30T03:45:08.914Z,7.07
2022-09-30T03:46:08.529Z,7.05
2022-09-30T03:47:08.520Z,7.05
2022-09-30T03:48:08.513Z,7.04
2022-09-30T03:49:08.485Z,7.02
2022-09-30T03:50:08.491Z,6.98
2022-09-30T03:51:08.777Z,6.98
2022-09-30T03:52:08.447Z,6.98
2022-09-30T03:53:08.436Z,6.97
2022-09-30T03:54:08.442Z,6.97
2022-09-30T03:55:08.432Z,6.97
2022-09-30T03:56:08.419Z,6.97
2022-09-30T03:57:08.600Z,6.97
2022-09-30T03:58:08.395Z,6.95
2022-09-30T03:59:08.396Z,6.98
2022-09-30T04:00:08.380Z,6.97
2022-09-30T04:01:08.394Z,6.95
2022-09-30T04:02:08.354Z,6.95
2022-09-30T04:03:08.577Z,6.95
2022-09-30T04:04:08.309Z,6.97
2022-09-30T04:05:08.314Z,6.97
2022-09-30T04:06:08.508Z,6.97
2022-09-30T04:07:08.291Z,6.97
2022-09-30T04:08:08.268Z,6.94
2022-09-30T04:09:08.315Z,6.97
2022-09-30T04:10:08.247Z,6.97
2022-09-30T04:11:08.554Z,6.91
2022-09-30T04:12:08.235Z,6.97
2022-09-30T04:13:08.208Z,6.98
2022-09-30T04:14:08.212Z,6.95
2022-09-30T04:15:08.180Z,6.97
2022-09-30T04:16:08.255Z,6.98
2022-09-30T04:17:08.437Z,6.97
2022-09-30T04:18:08.166Z,6.95
2022-09-30T04:19:08.153Z,6.95
2022-09-30T04:20:08.157Z,6.94
2022-09-30T04:21:08.140Z,6.94
2022-09-30T04:22:08.137Z,6.94
2022-09-30T04:23:08.132Z,6.94
2022-09-30T04:24:08.088Z,6.94
2022-09-30T04:25:08.087Z,6.94
2022-09-30T04:26:08.061Z,6.94
2022-09-30T04:27:08.055Z,6.91
2022-09-30T04:28:08.045Z,6.91
2022-09-30T04:29:08.375Z,6.89
2022-09-30T04:30:08.027Z,6.87
2022-09-30T04:31:08.096Z,6.90
2022-09-30T04:32:08.007Z,6.89
2022-09-30T04:33:07.972Z,6.87
2022-09-30T04:34:07.986Z,6.87
2022-09-30T04:35:08.265Z,6.84
2022-09-30T04:36:07.959Z,6.86
2022-09-30T04:37:10.958Z,6.86
2022-09-30T04:38:07.923Z,6.86
2022-09-30T04:39:07.918Z,6.87
2022-09-30T04:40:07.936Z,6.86
2022-09-30T04:41:08.157Z,6.86
2022-09-30T04:42:07.875Z,6.86
2022-09-30T04:43:07.880Z,6.83
2022-09-30T04:44:07.867Z,6.83
2022-09-30T04:45:07.848Z,6.84
2022-09-30T04:46:08.228Z,6.84
2022-09-30T04:47:07.828Z,6.83
2022-09-30T04:48:07.819Z,6.83
2022-09-30T04:49:09.374Z,6.83
2022-09-30T04:50:07.798Z,6.81
2022-09-30T04:51:07.766Z,6.84
2022-09-30T04:52:08.059Z,6.87
2022-09-30T04:53:07.746Z,6.84
2022-09-30T04:54:07.751Z,6.83
2022-09-30T04:55:07.717Z,6.80
2022-09-30T04:56:07.727Z,6.81
2022-09-30T04:57:07.699Z,6.81
2022-09-30T04:58:07.738Z,6.83
2022-09-30T04:59:07.677Z,6.80
2022-09-30T05:00:07.668Z,6.81
2022-09-30T05:01:07.711Z,6.81
2022-09-30T05:02:07.728Z,6.81
2022-09-30T05:03:07.641Z,6.83
2022-09-30T05:04:07.829Z,6.84
2022-09-30T05:05:07.609Z,6.84
2022-09-30T05:06:07.598Z,6.87
2022-09-30T05:07:07.579Z,6.84
2022-09-30T05:08:07.578Z,6.84
2022-09-30T05:09:07.627Z,6.81
2022-09-30T05:10:07.862Z,6.80
2022-09-30T05:11:07.552Z,6.80
2022-09-30T05:12:07.543Z,6.76
2022-09-30T05:13:07.517Z,6.76
2022-09-30T05:14:07.820Z,6.73
2022-09-30T05:15:07.503Z,6.73
2022-09-30T05:16:07.844Z,6.71
2022-09-30T05:17:07.483Z,6.69
2022-09-30T05:18:07.474Z,6.71
2022-09-30T05:19:07.458Z,6.69
2022-09-30T05:20:07.441Z,6.71
2022-09-30T05:21:07.429Z,6.68
2022-09-30T05:22:07.711Z,6.69
2022-09-30T05:23:07.423Z,6.68
2022-09-30T05:24:07.391Z,6.69
2022-09-30T05:25:07.399Z,6.65
2022-09-30T05:26:11.711Z,6.65
2022-09-30T05:27:08.565Z,6.66
2022-09-30T05:28:07.356Z,6.68
2022-09-30T05:29:07.347Z,6.63
2022-09-30T05:30:07.322Z,6.63
2022-09-30T05:31:07.364Z,6.62
2022-09-30T05:32:07.318Z,6.63
2022-09-30T05:33:07.423Z,6.65
2022-09-30T05:34:07.315Z,6.63
2022-09-30T05:35:07.261Z,6.66
2022-09-30T05:36:07.297Z,6.66
2022-09-30T05:37:07.234Z,6.65
2022-09-30T05:38:07.247Z,6.63
2022-09-30T05:39:07.235Z,6.65
2022-09-30T05:40:07.205Z,6.63
2022-09-30T05:41:07.467Z,6.62
2022-09-30T05:42:09.888Z,6.65
2022-09-30T05:43:08.174Z,6.66
2022-09-30T05:44:07.164Z,6.66
2022-09-30T05:45:07.166Z,6.66
2022-09-30T05:46:07.158Z,6.66
2022-09-30T05:47:07.239Z,6.68
2022-09-30T05:48:07.138Z,6.65
2022-09-30T05:49:07.105Z,6.65
2022-09-30T05:50:07.097Z,6.65
2022-09-30T05:51:07.089Z,6.63
2022-09-30T05:52:07.399Z,6.65
2022-09-30T05:53:07.079Z,6.62
2022-09-30T05:54:07.067Z,6.62
2022-09-30T05:55:07.050Z,6.63
2022-09-30T05:56:07.110Z,6.65
2022-09-30T05:57:07.007Z,6.65
2022-09-30T05:58:07.310Z,6.68
2022-09-30T05:59:06.988Z,6.68
2022-09-30T06:00:06.991Z,6.68
2022-09-30T06:01:12.077Z,6.68
2022-09-30T06:02:08.065Z,6.68
2022-09-30T06:03:07.170Z,6.71
2022-09-30T06:04:06.930Z,6.72
2022-09-30T06:05:06.935Z,6.72
2022-09-30T06:06:06.932Z,6.73
2022-09-30T06:07:10.370Z,6.77
2022-09-30T06:08:06.903Z,6.79
2022-09-30T06:09:07.223Z,6.80
2022-09-30T06:10:06.861Z,6.80
2022-09-30T06:11:06.849Z,6.80
2022-09-30T06:12:06.846Z,6.83
2022-09-30T06:13:06.828Z,6.81
2022-09-30T06:14:06.823Z,6.81
2022-09-30T06:15:07.032Z,6.84
2022-09-30T06:16:06.874Z,6.86
2022-09-30T06:17:06.790Z,6.86
2022-09-30T06:18:06.790Z,6.89
2022-09-30T06:19:06.773Z,6.90
2022-09-30T06:20:06.750Z,6.91
2022-09-30T06:21:06.741Z,6.91
2022-09-30T06:22:06.742Z,6.94
2022-09-30T06:23:06.730Z,6.94
2022-09-30T06:24:07.032Z,6.95
2022-09-30T06:25:06.708Z,6.95
2022-09-30T06:26:06.697Z,6.97
2022-09-30T06:27:06.683Z,6.98
2022-09-30T06:28:06.651Z,6.99
2022-09-30T06:29:06.641Z,6.99
2022-09-30T06:30:06.665Z,6.99
2022-09-30T06:31:21.327Z,7.01
2022-09-30T06:32:06.672Z,7.02
2022-09-30T06:33:06.594Z,7.02
2022-09-30T06:34:06.615Z,7.07
2022-09-30T06:35:06.896Z,7.12
2022-09-30T06:36:06.577Z,7.15
2022-09-30T06:37:06.567Z,7.13
2022-09-30T06:38:06.555Z,7.16
2022-09-30T06:39:09.099Z,7.17
2022-09-30T06:40:07.585Z,7.19
2022-09-30T06:41:06.517Z,7.19
2022-09-30T06:42:06.507Z,7.22
2022-09-30T06:43:06.489Z,7.26
2022-09-30T06:44:09.136Z,7.27
2022-09-30T06:45:06.456Z,7.32
2022-09-30T06:46:15.277Z,7.35
2022-09-30T06:47:16.287Z,7.38
2022-09-30T06:48:07.445Z,7.38
2022-09-30T06:49:13.319Z,7.44
2022-09-30T06:50:11.377Z,7.45
2022-09-30T06:51:07.418Z,7.50
2022-09-30T06:52:06.376Z,7.53
2022-09-30T06:53:06.383Z,7.56
2022-09-30T06:54:06.368Z,7.58
2022-09-30T06:55:06.358Z,7.60
2022-09-30T06:56:06.348Z,7.63
2022-09-30T06:57:06.590Z,7.69
2022-09-30T06:58:06.328Z,7.72
2022-09-30T06:59:06.288Z,7.74
2022-09-30T07:00:06.305Z,7.79
2022-09-30T07:01:06.420Z,7.81
2022-09-30T07:02:06.353Z,7.81
2022-09-30T07:03:06.271Z,7.84
2022-09-30T07:04:06.248Z,7.89
2022-09-30T07:05:06.251Z,7.89
2022-09-30T07:06:06.218Z,7.90
2022-09-30T07:07:06.211Z,7.93
2022-09-30T07:08:06.210Z,7.96
2022-09-30T07:09:06.521Z,8.00
2022-09-30T07:10:06.177Z,8.03
2022-09-30T07:11:06.171Z,8.08
2022-09-30T07:12:06.148Z,8.12
2022-09-30T07:13:06.143Z,8.15
2022-09-30T07:14:06.130Z,8.21
2022-09-30T07:15:10.225Z,8.25
2022-09-30T07:16:07.205Z,8.30
2022-09-30T07:17:06.118Z,8.33
2022-09-30T07:18:06.091Z,8.39
2022-09-30T07:19:06.060Z,8.45
2022-09-30T07:20:06.080Z,8.50
2022-09-30T07:21:06.055Z,8.54
2022-09-30T07:22:06.053Z,8.58
2022-09-30T07:23:06.021Z,8.65
2022-09-30T07:24:06.025Z,8.68
2022-09-30T07:25:06.006Z,8.73
2022-09-30T07:26:06.258Z,8.78
2022-09-30T07:27:05.972Z,8.83
2022-09-30T07:28:05.971Z,8.90
2022-09-30T07:29:05.943Z,8.93
2022-09-30T07:30:13.294Z,8.96
2022-09-30T07:31:31.491Z,9.01
2022-09-30T07:32:06.963Z,9.06
2022-09-30T07:33:05.927Z,9.12
2022-09-30T07:34:05.894Z,9.18
2022-09-30T07:35:05.898Z,9.21
2022-09-30T07:36:05.872Z,9.27
2022-09-30T07:37:06.093Z,9.32
2022-09-30T07:38:05.859Z,9.39
2022-09-30T07:39:06.573Z,9.43
2022-09-30T07:40:05.837Z,9.50
2022-09-30T07:41:05.818Z,9.57
2022-09-30T07:42:06.137Z,9.64
2022-09-30T07:43:05.785Z,9.68
2022-09-30T07:44:05.778Z,9.78
2022-09-30T07:45:05.788Z,9.79
2022-09-30T07:46:05.783Z,9.86
2022-09-30T07:47:05.787Z,9.91
2022-09-30T07:48:05.737Z,9.96
2022-09-30T07:49:05.731Z,10.04
2022-09-30T07:50:05.707Z,10.09
2022-09-30T07:51:05.711Z,10.14
2022-09-30T07:52:05.679Z,10.19
2022-09-30T07:53:05.937Z,10.25
2022-09-30T07:54:05.657Z,10.30
2022-09-30T07:55:05.649Z,10.34
2022-09-30T07:56:05.650Z,10.40
2022-09-30T07:57:10.076Z,10.47
2022-09-30T07:58:05.629Z,10.53
2022-09-30T07:59:05.822Z,10.59
2022-09-30T08:00:23.442Z,10.65
2022-09-30T08:01:06.625Z,10.71
2022-09-30T08:02:05.601Z,10.77
2022-09-30T08:03:05.570Z,10.84
2022-09-30T08:04:05.555Z,10.89
2022-09-30T08:05:05.563Z,10.96
2022-09-30T08:06:05.561Z,11.02
2022-09-30T08:07:05.521Z,11.09
2022-09-30T08:08:05.491Z,11.14
2022-09-30T08:09:05.525Z,11.21
2022-09-30T08:10:05.504Z,11.28
2022-09-30T08:11:05.475Z,11.35
2022-09-30T08:12:05.775Z,11.44
2022-09-30T08:13:06.317Z,11.47
2022-09-30T08:14:05.422Z,11.52
2022-09-30T08:15:05.426Z,11.57
2022-09-30T08:16:05.461Z,11.65
2022-09-30T08:17:05.430Z,11.70
2022-09-30T08:18:05.687Z,11.74
2022-09-30T08:19:05.387Z,11.80
2022-09-30T08:20:07.528Z,11.87
2022-09-30T08:21:06.399Z,11.94
2022-09-30T08:22:05.357Z,11.97
2022-09-30T08:23:05.340Z,12.04
2022-09-30T08:24:05.306Z,12.09
2022-09-30T08:25:05.305Z,12.12
2022-09-30T08:26:05.308Z,12.13
2022-09-30T08:27:05.631Z,12.20
2022-09-30T08:28:05.256Z,12.26
2022-09-30T08:29:05.278Z,12.27
2022-09-30T08:30:05.403Z,12.31
2022-09-30T08:31:05.262Z,12.33
2022-09-30T08:32:05.264Z,12.30
2022-09-30T08:33:05.416Z,12.30
2022-09-30T08:34:05.210Z,12.33
2022-09-30T08:35:05.263Z,12.39
2022-09-30T08:36:05.190Z,12.45
2022-09-30T08:37:09.117Z,12.52
2022-09-30T08:38:05.479Z,12.60
2022-09-30T08:39:05.148Z,12.69
2022-09-30T08:40:05.128Z,12.67
2022-09-30T08:41:05.118Z,12.70
2022-09-30T08:42:13.899Z,12.77
2022-09-30T08:43:06.198Z,12.81
2022-09-30T08:44:05.087Z,12.81
2022-09-30T08:45:05.078Z,12.78
2022-09-30T08:46:05.117Z,12.81
2022-09-30T08:47:05.052Z,12.87
2022-09-30T08:48:05.165Z,12.88
2022-09-30T08:49:05.030Z,12.88
2022-09-30T08:50:05.037Z,12.92
2022-09-30T08:51:05.020Z,12.95
2022-09-30T08:52:05.006Z,12.99
2022-09-30T08:53:05.011Z,13.02
2022-09-30T08:54:05.186Z,13.06
2022-09-30T08:55:04.963Z,13.12
2022-09-30T08:56:04.958Z,13.18
2022-09-30T08:57:04.946Z,13.21
2022-09-30T08:58:04.921Z,13.22
2022-09-30T08:59:04.912Z,13.24
2022-09-30T09:00:05.086Z,13.25
2022-09-30T09:01:04.961Z,13.32
2022-09-30T09:02:04.965Z,13.37
2022-09-30T09:03:04.863Z,13.47
2022-09-30T09:04:04.849Z,13.55
2022-09-30T09:05:04.930Z,13.59
2022-09-30T09:06:04.828Z,13.65
2022-09-30T09:07:04.840Z,13.70
2022-09-30T09:08:05.058Z,13.74
2022-09-30T09:09:04.818Z,13.81
2022-09-30T09:10:04.798Z,13.88
2022-09-30T09:11:04.798Z,13.96
2022-09-30T09:12:04.778Z,14.02
2022-09-30T09:13:04.761Z,14.10
2022-09-30T09:14:04.739Z,14.13
2022-09-30T09:15:04.791Z,14.20
2022-09-30T09:16:04.730Z,14.24
2022-09-30T09:17:04.768Z,14.21
2022-09-30T09:18:22.653Z,14.24
2022-09-30T09:19:05.739Z,14.24
2022-09-30T09:20:04.681Z,14.24
2022-09-30T09:21:04.901Z,14.25
2022-09-30T09:22:04.869Z,14.24
2022-09-30T09:23:04.639Z,14.24
2022-09-30T09:24:04.965Z,14.27
2022-09-30T09:25:04.629Z,14.35
2022-09-30T09:26:04.590Z,14.44
2022-09-30T09:27:04.633Z,14.50
2022-09-30T09:28:04.651Z,14.52
2022-09-30T09:29:04.574Z,14.47
2022-09-30T09:30:04.614Z,14.47
2022-09-30T09:31:04.554Z,14.56
2022-09-30T09:32:04.823Z,14.67
2022-09-30T09:33:04.524Z,14.75
2022-09-30T09:34:04.514Z,14.75
2022-09-30T09:35:04.626Z,14.83
2022-09-30T09:36:04.474Z,14.83
2022-09-30T09:37:04.464Z,14.84
2022-09-30T09:38:04.469Z,14.86
2022-09-30T09:39:04.444Z,14.87
2022-09-30T09:40:04.746Z,14.95
2022-09-30T09:41:04.686Z,15.05
2022-09-30T09:42:04.405Z,15.09
2022-09-30T09:43:04.395Z,15.15
2022-09-30T09:44:04.404Z,15.17
2022-09-30T09:45:04.394Z,15.21
2022-09-30T09:46:04.431Z,15.27
2022-09-30T09:47:04.712Z,15.31
2022-09-30T09:48:04.338Z,15.38
2022-09-30T09:49:04.350Z,15.42
2022-09-30T09:50:04.423Z,15.42
2022-09-30T09:51:04.307Z,15.45
2022-09-30T09:52:04.578Z,15.51
2022-09-30T09:53:04.293Z,15.57
2022-09-30T09:54:04.294Z,15.66
2022-09-30T09:55:04.274Z,15.72
2022-09-30T09:56:04.262Z,15.74
2022-09-30T09:57:04.242Z,15.75
2022-09-30T09:58:04.431Z,15.66
2022-09-30T09:59:04.230Z,15.63
2022-09-30T10:00:04.204Z,15.64
2022-09-30T10:01:07.618Z,15.54
2022-09-30T10:02:05.232Z,15.60
2022-09-30T10:03:04.176Z,15.64
2022-09-30T10:04:04.174Z,15.75
2022-09-30T10:05:27.875Z,15.84
2022-09-30T10:06:04.150Z,15.88
2022-09-30T10:07:04.135Z,15.92
2022-09-30T10:08:04.313Z,15.89
2022-09-30T10:09:04.113Z,15.82
2022-09-30T10:10:04.116Z,15.75
2022-09-30T10:11:04.099Z,15.75
2022-09-30T10:12:04.086Z,15.75
2022-09-30T10:13:04.077Z,15.68
2022-09-30T10:14:11.313Z,15.72
2022-09-30T10:15:04.348Z,15.74
2022-09-30T10:16:04.052Z,15.75
2022-09-30T10:17:04.019Z,15.72
2022-09-30T10:18:04.289Z,15.76
2022-09-30T10:19:18.952Z,15.74
2022-09-30T10:20:03.992Z,15.59
2022-09-30T10:21:03.968Z,15.60
2022-09-30T10:22:03.962Z,15.57
2022-09-30T10:23:04.210Z,15.59
2022-09-30T10:24:03.943Z,15.64
2022-09-30T10:25:03.926Z,15.75
2022-09-30T10:26:03.901Z,15.86
2022-09-30T10:27:03.890Z,15.86
2022-09-30T10:28:03.967Z,15.92
2022-09-30T10:29:04.084Z,16.00
2022-09-30T10:30:03.878Z,16.07
2022-09-30T10:31:03.852Z,16.07
2022-09-30T10:32:03.918Z,16.03
2022-09-30T10:33:03.836Z,16.04
2022-09-30T10:34:03.812Z,16.03
2022-09-30T10:35:04.021Z,16.09
2022-09-30T10:36:03.805Z,16.18
2022-09-30T10:37:03.773Z,16.26
2022-09-30T10:38:03.803Z,16.33
2022-09-30T10:39:06.705Z,16.41
2022-09-30T10:40:03.744Z,16.45
2022-09-30T10:41:03.757Z,16.52
2022-09-30T10:42:03.730Z,16.56
2022-09-30T10:43:03.724Z,16.52
2022-09-30T10:44:03.710Z,16.56
2022-09-30T10:45:03.938Z,16.60
2022-09-30T10:46:24.468Z,16.68
2022-09-30T10:47:04.719Z,16.73
2022-09-30T10:48:03.656Z,16.70
2022-09-30T10:49:03.650Z,16.75
2022-09-30T10:50:03.889Z,16.80
2022-09-30T10:51:03.632Z,16.86
2022-09-30T10:52:03.620Z,16.92
2022-09-30T10:53:03.602Z,16.96
2022-09-30T10:54:03.592Z,17.03
2022-09-30T10:55:03.759Z,16.95
2022-09-30T10:56:03.576Z,16.81
2022-09-30T10:57:03.552Z,16.74
2022-09-30T10:58:03.530Z,16.73
2022-09-30T10:59:03.541Z,16.78
2022-09-30T11:00:03.837Z,16.89
2022-09-30T11:01:03.520Z,16.98
2022-09-30T11:02:05.918Z,17.04
2022-09-30T11:03:03.887Z,17.13
2022-09-30T11:04:03.474Z,17.22
2022-09-30T11:05:03.452Z,17.29
2022-09-30T11:06:03.442Z,17.33
2022-09-30T11:07:03.435Z,17.41
2022-09-30T11:08:03.415Z,17.32
2022-09-30T11:09:03.436Z,17.25
2022-09-30T11:10:03.427Z,17.23
2022-09-30T11:11:07.227Z,17.18
2022-09-30T11:12:04.365Z,17.13
2022-09-30T11:13:03.375Z,17.13
2022-09-30T11:14:03.360Z,16.96
2022-09-30T11:15:03.347Z,16.93
2022-09-30T11:16:03.399Z,16.93
2022-09-30T11:17:03.314Z,17.00
2022-09-30T11:18:03.319Z,17.11
2022-09-30T11:19:03.487Z,17.20
2022-09-30T11:20:03.289Z,17.22
2022-09-30T11:21:03.262Z,17.15
2022-09-30T11:22:03.247Z,17.04
2022-09-30T11:23:03.238Z,16.98
2022-09-30T11:24:03.233Z,16.93
2022-09-30T11:25:07.410Z,16.83
2022-09-30T11:26:04.333Z,16.75
2022-09-30T11:27:03.204Z,16.81
2022-09-30T11:28:03.288Z,16.81
2022-09-30T11:29:03.369Z,16.89
2022-09-30T11:30:03.165Z,16.83
2022-09-30T11:31:06.989Z,16.81
2022-09-30T11:32:03.206Z,16.85
2022-09-30T11:33:03.135Z,16.90
2022-09-30T11:34:03.133Z,17.00
2022-09-30T11:35:03.154Z,17.04
2022-09-30T11:36:03.081Z,17.10
2022-09-30T11:37:03.071Z,17.18
2022-09-30T11:38:03.076Z,17.25
2022-09-30T11:39:03.074Z,17.22
2022-09-30T11:40:03.043Z,17.32
2022-09-30T11:41:03.267Z,17.38
2022-09-30T11:42:03.035Z,17.32
2022-09-30T11:43:07.418Z,17.29
2022-09-30T11:44:04.015Z,17.30
2022-09-30T11:45:02.975Z,17.28
2022-09-30T11:46:03.019Z,17.30
2022-09-30T11:47:03.164Z,17.36
2022-09-30T11:48:02.945Z,17.38
2022-09-30T11:49:02.959Z,17.30
2022-09-30T11:50:02.939Z,17.26
2022-09-30T11:51:02.917Z,17.17
2022-09-30T11:52:02.897Z,17.13
2022-09-30T11:53:03.117Z,17.07
2022-09-30T11:54:02.888Z,16.98
2022-09-30T11:55:02.883Z,16.89
2022-09-30T11:56:02.848Z,16.93
2022-09-30T11:57:02.839Z,16.92
2022-09-30T11:58:22.324Z,16.85
2022-09-30T11:59:04.033Z,16.93
2022-09-30T12:00:02.822Z,16.88
2022-09-30T12:01:02.817Z,16.86
2022-09-30T12:02:02.826Z,16.88
2022-09-30T12:03:06.694Z,16.92
2022-09-30T12:04:03.804Z,17.00
2022-09-30T12:05:03.062Z,17.00
2022-09-30T12:06:02.745Z,16.95
2022-09-30T12:07:02.805Z,16.90
2022-09-30T12:08:02.718Z,16.74
2022-09-30T12:09:02.723Z,16.59
2022-09-30T12:10:02.705Z,16.44
2022-09-30T12:11:02.996Z,16.40
2022-09-30T12:12:02.696Z,16.49
2022-09-30T12:13:02.664Z,16.59
2022-09-30T12:14:02.657Z,16.71
2022-09-30T12:15:02.637Z,16.81
2022-09-30T12:16:02.695Z,16.92
2022-09-30T12:17:03.027Z,16.99
2022-09-30T12:18:02.596Z,17.06
2022-09-30T12:19:02.595Z,17.03
2022-09-30T12:20:02.576Z,16.98
2022-09-30T12:21:02.566Z,16.95
2022-09-30T12:22:02.568Z,17.03
2022-09-30T12:23:02.857Z,17.07
2022-09-30T12:24:02.526Z,17.13
2022-09-30T12:25:02.517Z,17.22
2022-09-30T12:26:02.498Z,17.33
2022-09-30T12:27:02.515Z,17.44
2022-09-30T12:28:02.792Z,17.33
2022-09-30T12:29:03.700Z,17.28
2022-09-30T12:30:02.472Z,17.23
2022-09-30T12:31:02.453Z,17.20
2022-09-30T12:32:02.521Z,17.26
2022-09-30T12:33:02.442Z,17.32
2022-09-30T12:34:02.620Z,17.36
2022-09-30T12:35:02.428Z,17.43
2022-09-30T12:36:02.388Z,17.47
2022-09-30T12:37:02.422Z,17.43
2022-09-30T12:38:02.357Z,17.47
2022-09-30T12:39:02.377Z,17.47
2022-09-30T12:40:02.675Z,17.50
2022-09-30T12:41:02.344Z,17.43
2022-09-30T12:42:02.314Z,17.46
2022-09-30T12:43:02.320Z,17.51
2022-09-30T12:44:02.504Z,17.59
2022-09-30T12:45:02.291Z,17.69
2022-09-30T12:46:02.313Z,17.74
2022-09-30T12:47:02.276Z,17.79
2022-09-30T12:48:02.245Z,17.84
2022-09-30T12:49:02.243Z,17.91
2022-09-30T12:50:02.485Z,17.94
2022-09-30T12:51:02.232Z,17.99
2022-09-30T12:52:02.405Z,18.00
2022-09-30T12:53:02.208Z,17.94
2022-09-30T12:54:02.250Z,18.00
2022-09-30T12:55:02.189Z,17.92
2022-09-30T12:56:02.177Z,17.87
2022-09-30T12:57:02.481Z,17.78
2022-09-30T12:58:02.129Z,17.76
2022-09-30T12:59:02.132Z,17.73
2022-09-30T13:00:02.114Z,17.63
2022-09-30T13:01:02.172Z,17.57
2022-09-30T13:02:02.319Z,17.55
2022-09-30T13:03:02.079Z,17.57
2022-09-30T13:04:02.074Z,17.55
2022-09-30T13:05:02.073Z,17.57
2022-09-30T13:06:02.040Z,17.62
2022-09-30T13:07:02.030Z,17.66